Corinthiakos — A8UL2 — position and weather

sailwx.info

Track history (hours):
 
Tides and Currents Weather Stations Pressure Air Temp Water Temp Dewpoint Dewpoint Depression Visibility Wind Speed Wind Dir Waves Ship Positions

Corinthiakos

Last reported at 2018-Apr-16 02:13 UTC. Time now 2018-Apr-24 10:24 UTC.
Position N 01°18' E 103°21'.
Warning: this ship's position is 8 days out of date.

Length 262 m; draft 11.4 m.

Type: Cargo ship. MMSI: 636014516.

Date/timePositionNaut miles runAvg speedWind from/ knotsBaromVisibWave heightAir tempDewpointWater temp
2018-Apr-16 02:13N 01°18' E 103°21'520.0
2018-Apr-16 01:59N 01°15' E 103°25'919.6
2018-Apr-16 01:30N 01°12' E 103°34'713.3
2018-Apr-16 01:00N 01°13' E 103°40'612.6
2018-Apr-16 00:30N 01°16' E 103°46'1 2.8
2018-Apr-16 00:01N 01°17' E 103°47'0 0.0
2018-Apr-15 23:30N 01°17' E 103°47'0 0.0
2018-Apr-15 23:01N 01°17' E 103°47'0 0.0
2018-Apr-15 22:30N 01°17' E 103°47'0 0.0
2018-Apr-15 22:00N 01°17' E 103°47'0 0.0
2018-Apr-15 21:30N 01°17' E 103°47'0 0.0
2018-Apr-15 21:01N 01°17' E 103°47'0 0.0
2018-Apr-15 20:31N 01°17' E 103°47'0 0.0
2018-Apr-15 20:00N 01°17' E 103°47'0 0.0
2018-Apr-15 19:31N 01°17' E 103°47'0 0.0
2018-Apr-15 19:01N 01°17' E 103°47'0 0.0
2018-Apr-15 18:30N 01°17' E 103°47'0 0.0
2018-Apr-15 18:01N 01°17' E 103°47'0 0.0
2018-Apr-15 17:31N 01°17' E 103°47'0 0.0
2018-Apr-15 17:01N 01°17' E 103°47'0 0.0
2018-Apr-15 16:31N 01°17' E 103°47'0 0.0
2018-Apr-15 16:01N 01°17' E 103°47'0 0.0
2018-Apr-15 15:31N 01°17' E 103°47'0 0.0
2018-Apr-15 15:01N 01°17' E 103°47'0 0.0
2018-Apr-15 14:31N 01°17' E 103°47'0 0.0
2018-Apr-15 14:01N 01°17' E 103°47'0 0.0
2018-Apr-15 13:31N 01°17' E 103°47'0 0.0
2018-Apr-15 13:00N 01°17' E 103°47'0 0.0
2018-Apr-15 12:30N 01°17' E 103°47'0 0.0
2018-Apr-15 12:00N 01°17' E 103°47'0 0.5
2018-Apr-15 11:30N 01°16' E 103°47'2 3.3
2018-Apr-15 11:00N 01°15' E 103°47'5 9.4
2018-Apr-15 10:30N 01°13' E 103°51'3 6.2
2018-Apr-15 09:59N 01°14' E 103°54'4 8.3
2018-Apr-15 09:30N 01°15' E 103°58'714.6
2018-Apr-15 09:00N 01°16' E 104°05'  
2018-Apr-09 11:06N 22°26' E 119°35'212.1
2018-Apr-09 10:58N 22°26' E 119°37'612.0
2018-Apr-09 10:30N 22°27' E 119°43'612.2
2018-Apr-09 10:00N 22°28' E 119°49'612.7
2018-Apr-09 09:30N 22°29' E 119°56'712.8
2018-Apr-09 08:59N 22°31' E 120°03'612.5
2018-Apr-09 08:30N 22°33' E 120°09'612.3
2018-Apr-09 08:00N 22°33' E 120°16'3 5.8
2018-Apr-09 07:30N 22°34' E 120°19'1 2.4
2018-Apr-09 07:00N 22°35' E 120°18'0 0.0
2018-Apr-09 06:30N 22°35' E 120°18'0 0.0
2018-Apr-09 06:00N 22°35' E 120°18'0 0.0
2018-Apr-09 05:30N 22°35' E 120°18'0 0.0
2018-Apr-09 05:00N 22°35' E 120°18'0 0.0
2018-Apr-09 04:30N 22°35' E 120°18'0 0.0
2018-Apr-09 04:00N 22°35' E 120°18'0 0.0
2018-Apr-09 03:30N 22°35' E 120°18'0 0.0
2018-Apr-09 03:00N 22°35' E 120°18'0 0.0
2018-Apr-09 02:30N 22°35' E 120°18'0 0.0
2018-Apr-09 02:00N 22°35' E 120°18'0 0.0
2018-Apr-09 01:30N 22°35' E 120°18'0 0.0
2018-Apr-09 01:00N 22°35' E 120°18'0 0.0
2018-Apr-09 00:30N 22°35' E 120°18'0 0.0
2018-Apr-09 00:00N 22°35' E 120°18'0 0.0
2018-Apr-08 23:30N 22°35' E 120°18'0 0.0
2018-Apr-08 23:00N 22°35' E 120°18'0 0.1
2018-Apr-08 22:30N 22°35' E 120°18'0 0.1
2018-Apr-08 22:00N 22°35' E 120°18'0 0.1
2018-Apr-08 21:30N 22°35' E 120°18'0 0.0
2018-Apr-08 21:00N 22°35' E 120°18'0 0.1
2018-Apr-08 20:30N 22°35' E 120°18'0 0.0
2018-Apr-08 20:00N 22°35' E 120°18'0 0.1
2018-Apr-08 19:29N 22°35' E 120°18'0 0.0
2018-Apr-08 18:59N 22°35' E 120°18'0 0.1
2018-Apr-08 18:30N 22°35' E 120°18'0 0.0
2018-Apr-08 18:00N 22°35' E 120°18'0 0.0
2018-Apr-08 17:30N 22°35' E 120°18'0 0.0
2018-Apr-08 17:00N 22°35' E 120°18'0 0.0
2018-Apr-08 16:30N 22°35' E 120°18'0 0.0
2018-Apr-08 16:00N 22°35' E 120°18'0 0.0
2018-Apr-08 15:30N 22°35' E 120°18'0 0.1
2018-Apr-08 15:00N 22°35' E 120°18'0 0.0
2018-Apr-08 14:30N 22°35' E 120°18'0 0.1
2018-Apr-08 14:00N 22°35' E 120°18'0 0.1
2018-Apr-08 13:30N 22°35' E 120°18'0 0.0
2018-Apr-08 13:00N 22°35' E 120°18'0 0.0
2018-Apr-08 12:30N 22°35' E 120°18'0 0.0
2018-Apr-08 12:00N 22°35' E 120°18'0 0.0
2018-Apr-08 11:30N 22°35' E 120°18'0 0.8
2018-Apr-08 10:59N 22°34' E 120°19'2 3.8
2018-Apr-08 10:30N 22°33' E 120°17'2 3.5
2018-Apr-08 10:00N 22°31' E 120°16'0 0.1
2018-Apr-08 09:29N 22°31' E 120°16'0 0.0
2018-Apr-08 08:59N 22°31' E 120°16'0 0.0
2018-Apr-08 08:29N 22°31' E 120°16'0 0.0
2018-Apr-08 07:59N 22°31' E 120°16'0 0.9
2018-Apr-08 07:30N 22°32' E 120°16'5 9.4
2018-Apr-08 07:00N 22°29' E 120°12'612.4
2018-Apr-08 06:30N 22°24' E 120°08'612.4
2018-Apr-08 06:01N 22°19' E 120°04'  
Track history (hours):
 
Tides and Currents Weather Stations Pressure Air Temp Water Temp Dewpoint Dewpoint Depression Visibility Wind Speed Wind Dir Waves Ship Positions

Corinthiakos

Last reported at 2018-Apr-16 02:13 UTC. Time now 2018-Apr-24 10:24 UTC.
Position N 01°18' E 103°21'.
Warning: this ship's position is 8 days out of date.

Length 262 m; draft 11.4 m.

Type: Cargo ship. MMSI: 636014516.

Date/timePositionNaut miles runAvg speedWind from/ knotsBaromVisibWave heightAir tempDewpointWater temp
2018-Apr-16 02:13N 01°18' E 103°21'520.0
2018-Apr-16 01:59N 01°15' E 103°25'919.6
2018-Apr-16 01:30N 01°12' E 103°34'713.3
2018-Apr-16 01:00N 01°13' E 103°40'612.6
2018-Apr-16 00:30N 01°16' E 103°46'1 2.8
2018-Apr-16 00:01N 01°17' E 103°47'0 0.0
2018-Apr-15 23:30N 01°17' E 103°47'0 0.0
2018-Apr-15 23:01N 01°17' E 103°47'0 0.0
2018-Apr-15 22:30N 01°17' E 103°47'0 0.0
2018-Apr-15 22:00N 01°17' E 103°47'0 0.0
2018-Apr-15 21:30N 01°17' E 103°47'0 0.0
2018-Apr-15 21:01N 01°17' E 103°47'0 0.0
2018-Apr-15 20:31N 01°17' E 103°47'0 0.0
2018-Apr-15 20:00N 01°17' E 103°47'0 0.0
2018-Apr-15 19:31N 01°17' E 103°47'0 0.0
2018-Apr-15 19:01N 01°17' E 103°47'0 0.0
2018-Apr-15 18:30N 01°17' E 103°47'0 0.0
2018-Apr-15 18:01N 01°17' E 103°47'0 0.0
2018-Apr-15 17:31N 01°17' E 103°47'0 0.0
2018-Apr-15 17:01N 01°17' E 103°47'0 0.0
2018-Apr-15 16:31N 01°17' E 103°47'0 0.0
2018-Apr-15 16:01N 01°17' E 103°47'0 0.0
2018-Apr-15 15:31N 01°17' E 103°47'0 0.0
2018-Apr-15 15:01N 01°17' E 103°47'0 0.0
2018-Apr-15 14:31N 01°17' E 103°47'0 0.0
2018-Apr-15 14:01N 01°17' E 103°47'0 0.0
2018-Apr-15 13:31N 01°17' E 103°47'0 0.0
2018-Apr-15 13:00N 01°17' E 103°47'0 0.0
2018-Apr-15 12:30N 01°17' E 103°47'0 0.0
2018-Apr-15 12:00N 01°17' E 103°47'0 0.5
2018-Apr-15 11:30N 01°16' E 103°47'2 3.3
2018-Apr-15 11:00N 01°15' E 103°47'5 9.4
2018-Apr-15 10:30N 01°13' E 103°51'3 6.2
2018-Apr-15 09:59N 01°14' E 103°54'4 8.3
2018-Apr-15 09:30N 01°15' E 103°58'714.6
2018-Apr-15 09:00N 01°16' E 104°05'  
2018-Apr-09 11:06N 22°26' E 119°35'212.1
2018-Apr-09 10:58N 22°26' E 119°37'612.0
2018-Apr-09 10:30N 22°27' E 119°43'612.2
2018-Apr-09 10:00N 22°28' E 119°49'612.7
2018-Apr-09 09:30N 22°29' E 119°56'712.8
2018-Apr-09 08:59N 22°31' E 120°03'612.5
2018-Apr-09 08:30N 22°33' E 120°09'612.3
2018-Apr-09 08:00N 22°33' E 120°16'3 5.8
2018-Apr-09 07:30N 22°34' E 120°19'1 2.4
2018-Apr-09 07:00N 22°35' E 120°18'0 0.0
2018-Apr-09 06:30N 22°35' E 120°18'0 0.0
2018-Apr-09 06:00N 22°35' E 120°18'0 0.0
2018-Apr-09 05:30N 22°35' E 120°18'0 0.0
2018-Apr-09 05:00N 22°35' E 120°18'0 0.0
2018-Apr-09 04:30N 22°35' E 120°18'0 0.0
2018-Apr-09 04:00N 22°35' E 120°18'0 0.0
2018-Apr-09 03:30N 22°35' E 120°18'0 0.0
2018-Apr-09 03:00N 22°35' E 120°18'0 0.0
2018-Apr-09 02:30N 22°35' E 120°18'0 0.0
2018-Apr-09 02:00N 22°35' E 120°18'0 0.0
2018-Apr-09 01:30N 22°35' E 120°18'0 0.0
2018-Apr-09 01:00N 22°35' E 120°18'0 0.0
2018-Apr-09 00:30N 22°35' E 120°18'0 0.0
2018-Apr-09 00:00N 22°35' E 120°18'0 0.0
2018-Apr-08 23:30N 22°35' E 120°18'0 0.0
2018-Apr-08 23:00N 22°35' E 120°18'0 0.1
2018-Apr-08 22:30N 22°35' E 120°18'0 0.1
2018-Apr-08 22:00N 22°35' E 120°18'0 0.1
2018-Apr-08 21:30N 22°35' E 120°18'0 0.0
2018-Apr-08 21:00N 22°35' E 120°18'0 0.1
2018-Apr-08 20:30N 22°35' E 120°18'0 0.0
2018-Apr-08 20:00N 22°35' E 120°18'0 0.1
2018-Apr-08 19:29N 22°35' E 120°18'0 0.0
2018-Apr-08 18:59N 22°35' E 120°18'0 0.1
2018-Apr-08 18:30N 22°35' E 120°18'0 0.0
2018-Apr-08 18:00N 22°35' E 120°18'0 0.0
2018-Apr-08 17:30N 22°35' E 120°18'0 0.0
2018-Apr-08 17:00N 22°35' E 120°18'0 0.0
2018-Apr-08 16:30N 22°35' E 120°18'0 0.0
2018-Apr-08 16:00N 22°35' E 120°18'0 0.0
2018-Apr-08 15:30N 22°35' E 120°18'0 0.1
2018-Apr-08 15:00N 22°35' E 120°18'0 0.0
2018-Apr-08 14:30N 22°35' E 120°18'0 0.1
2018-Apr-08 14:00N 22°35' E 120°18'0 0.1
2018-Apr-08 13:30N 22°35' E 120°18'0 0.0
2018-Apr-08 13:00N 22°35' E 120°18'0 0.0
2018-Apr-08 12:30N 22°35' E 120°18'0 0.0
2018-Apr-08 12:00N 22°35' E 120°18'0 0.0
2018-Apr-08 11:30N 22°35' E 120°18'0 0.8
2018-Apr-08 10:59N 22°34' E 120°19'2 3.8
2018-Apr-08 10:30N 22°33' E 120°17'2 3.5
2018-Apr-08 10:00N 22°31' E 120°16'0 0.1
2018-Apr-08 09:29N 22°31' E 120°16'0 0.0
2018-Apr-08 08:59N 22°31' E 120°16'0 0.0
2018-Apr-08 08:29N 22°31' E 120°16'0 0.0
2018-Apr-08 07:59N 22°31' E 120°16'0 0.9
2018-Apr-08 07:30N 22°32' E 120°16'5 9.4
2018-Apr-08 07:00N 22°29' E 120°12'612.4
2018-Apr-08 06:30N 22°24' E 120°08'612.4
2018-Apr-08 06:01N 22°19' E 120°04'  

Dump ship's entire track history